Time,TemperatureF,DewpointF,PressureIn,WindDirection,WindDirectionDegrees,WindSpeedMPH,WindSpeedGustMPH,Humidity,HourlyPrecipIn,Conditions,Clouds,dailyrainin,SoftwareType,DateUTC
2013-02-28 00:28:00,47.7,43.7,30.36,WNW,294,6.0,6.0,86,0.00,,,0.00,Wunderground v.1.15,2013-02-28 08:28:00,
2013-02-28 00:58:00,48.0,43.7,30.36,WNW,299,4.0,4.0,85,0.00,,,0.00,Wunderground v.1.15,2013-02-28 08:58:00,
2013-02-28 01:28:00,47.8,43.8,30.37,WNW,296,5.0,5.0,86,0.00,,,0.00,Wunderground v.1.15,2013-02-28 09:28:00,
2013-02-28 01:58:00,50.0,44.4,30.37,WNW,300,3.0,4.0,81,0.00,,,0.00,Wunderground v.1.15,2013-02-28 09:58:00,
2013-02-28 02:27:00,47.3,43.3,30.37,WNW,295,3.0,5.0,86,0.00,,,0.00,Wunderground v.1.15,2013-02-28 10:27:00,
2013-02-28 02:58:00,47.5,44.1,30.37,WNW,300,5.0,5.0,88,0.00,,,0.00,Wunderground v.1.15,2013-02-28 10:58:00,
2013-02-28 03:28:00,50.6,45.0,30.36,NW,310,4.0,4.0,81,0.00,,,0.00,Wunderground v.1.15,2013-02-28 11:28:00,
2013-02-28 03:58:00,48.7,44.4,30.36,NW,304,5.0,6.0,85,0.00,,,0.00,Wunderground v.1.15,2013-02-28 11:58:00,
2013-02-28 04:28:00,47.3,43.9,30.36,WNW,289,6.0,6.0,88,0.00,,,0.00,Wunderground v.1.15,2013-02-28 12:28:00,
2013-02-28 04:58:00,48.5,44.5,30.37,WNW,293,3.0,3.0,86,0.00,,,0.00,Wunderground v.1.15,2013-02-28 12:58:00,
2013-02-28 05:28:00,48.7,45.3,30.38,NW,315,5.0,5.0,88,0.00,,,0.00,Wunderground v.1.15,2013-02-28 13:28:00,
2013-02-28 05:58:00,48.0,44.9,30.39,WNW,288,7.0,7.0,89,0.00,,,0.00,Wunderground v.1.15,2013-02-28 13:58:00,
2013-02-28 06:28:00,49.9,45.6,30.40,WNW,294,5.0,5.0,85,0.00,,,0.00,Wunderground v.1.15,2013-02-28 14:28:00,
2013-02-28 06:58:00,50.2,45.9,30.40,NW,317,4.0,4.0,85,0.00,,,0.00,Wunderground v.1.15,2013-02-28 14:58:00,
2013-02-28 07:28:00,50.6,46.3,30.41,WNW,293,4.0,5.0,85,0.00,,,0.00,Wunderground v.1.15,2013-02-28 15:28:00,
2013-02-28 07:58:00,50.1,46.1,30.41,WNW,296,2.0,5.0,86,0.00,,,0.00,Wunderground v.1.15,2013-02-28 15:58:00,
2013-02-28 08:28:00,51.6,47.2,30.42,WNW,297,7.0,7.0,85,0.00,,,0.00,Wunderground v.1.15,2013-02-28 16:28:00,
2013-02-28 08:58:00,54.3,48.3,30.43,WNW,298,8.0,8.0,80,0.00,,,0.00,Wunderground v.1.15,2013-02-28 16:58:00,
2013-02-28 09:28:00,53.9,48.2,30.43,WNW,282,9.0,10.0,81,0.00,,,0.00,Wunderground v.1.15,2013-02-28 17:28:00,
2013-02-28 09:58:00,55.5,49.1,30.44,West,277,8.0,8.0,79,0.00,,,0.00,Wunderground v.1.15,2013-02-28 17:58:00,
2013-02-28 10:28:00,56.7,49.2,30.44,West,280,5.0,5.0,76,0.00,,,0.00,Wunderground v.1.15,2013-02-28 18:28:00,
2013-02-28 10:58:00,58.6,50.3,30.43,WNW,290,4.0,9.0,74,0.00,,,0.00,Wunderground v.1.15,2013-02-28 18:58:00,
2013-02-28 11:28:00,59.2,50.9,30.42,NW,307,10.0,10.0,74,0.00,,,0.00,Wunderground v.1.15,2013-02-28 19:28:00,
2013-02-28 11:58:00,58.7,50.4,30.42,WNW,285,11.0,11.0,74,0.00,,,0.00,Wunderground v.1.15,2013-02-28 19:58:00,
2013-02-28 12:28:00,59.5,49.7,30.42,NW,309,9.0,14.0,70,0.00,,,0.00,Wunderground v.1.15,2013-02-28 20:28:00,
2013-02-28 12:57:00,61.0,50.0,30.40,West,261,7.0,7.0,67,0.00,,,0.00,Wunderground v.1.15,2013-02-28 20:57:00,
2013-02-28 13:28:00,61.3,51.4,30.39,West,271,9.0,9.0,70,0.00,,,0.00,Wunderground v.1.15,2013-02-28 21:28:00,
2013-02-28 13:58:00,61.3,51.0,30.39,West,278,10.0,10.0,69,0.00,,,0.00,Wunderground v.1.15,2013-02-28 21:58:00,
2013-02-28 14:28:00,60.9,51.0,30.39,NW,308,8.0,8.0,70,0.00,,,0.00,Wunderground v.1.15,2013-02-28 22:28:00,
2013-02-28 14:58:00,61.1,51.2,30.39,WNW,291,9.0,13.0,70,0.00,,,0.00,Wunderground v.1.15,2013-02-28 22:58:00,
2013-02-28 15:28:00,58.8,50.2,30.40,NW,311,10.0,10.0,73,0.00,,,0.00,Wunderground v.1.15,2013-02-28 23:28:00,
2013-02-28 15:58:00,58.9,50.3,30.38,WNW,299,9.0,9.0,73,0.00,,,0.00,Wunderground v.1.15,2013-02-28 23:58:00,
2013-02-28 16:28:00,58.3,50.4,30.38,WNW,303,9.0,9.0,75,0.00,,,0.00,Wunderground v.1.15,2013-03-01 00:28:00,
2013-02-28 16:57:00,56.4,49.6,30.37,WNW,301,12.0,18.0,78,0.00,,,0.00,Wunderground v.1.15,2013-03-01 00:57:00,
2013-02-28 17:28:00,54.8,49.1,30.38,WNW,298,10.0,10.0,81,0.00,,,0.00,Wunderground v.1.15,2013-03-01 01:28:00,
2013-02-28 17:58:00,52.0,47.9,30.38,NW,321,8.0,8.0,86,0.00,,,0.00,Wunderground v.1.15,2013-03-01 01:58:00,
2013-02-28 18:28:00,51.1,47.7,30.39,NNW,341,9.0,9.0,88,0.00,,,0.00,Wunderground v.1.15,2013-03-01 02:28:00,
2013-02-28 18:58:00,51.1,47.7,30.40,NNW,334,4.0,4.0,88,0.00,,,0.00,Wunderground v.1.15,2013-03-01 02:58:00,
2013-02-28 19:27:00,52.1,48.0,30.40,NW,321,6.0,6.0,86,0.00,,,0.00,Wunderground v.1.15,2013-03-01 03:27:00,
2013-02-28 19:58:00,52.1,48.0,30.40,NW,320,8.0,8.0,86,0.00,,,0.00,Wunderground v.1.15,2013-03-01 03:58:00,
2013-02-28 20:28:00,50.9,47.2,30.41,West,278,5.0,5.0,87,0.00,,,0.00,Wunderground v.1.15,2013-03-01 04:28:00,
2013-02-28 20:58:00,49.8,47.0,30.42,NW,316,6.0,6.0,90,0.00,,,0.00,Wunderground v.1.15,2013-03-01 04:58:00,
2013-02-28 21:27:00,48.1,45.9,30.42,West,269,5.0,5.0,92,0.00,,,0.00,Wunderground v.1.15,2013-03-01 05:27:00,
2013-02-28 21:58:00,47.8,45.9,30.42,West,274,7.0,7.0,93,0.00,,,0.00,Wunderground v.1.15,2013-03-01 05:58:00,
2013-02-28 22:28:00,47.2,45.6,30.43,NW,304,9.0,9.0,94,0.00,,,0.00,Wunderground v.1.15,2013-03-01 06:28:00,
2013-02-28 22:58:00,46.2,44.6,30.43,WNW,303,1.0,1.0,94,0.00,,,0.00,Wunderground v.1.15,2013-03-01 06:58:00,
2013-02-28 23:28:00,45.3,44.0,30.42,WNW,293,1.0,1.0,95,0.00,,,0.00,Wunderground v.1.15,2013-03-01 07:28:00,
2013-02-28 23:58:00,44.9,43.8,30.42,WNW,293,1.0,1.0,96,0.00,,,0.00,Wunderground v.1.15,2013-03-01 07:58:00,